createdAt,value
2023-05-06T00:02:09.351Z,15.69
2023-05-06T00:04:40.144Z,15.70
2023-05-06T00:07:10.729Z,15.53
2023-05-06T00:09:41.369Z,15.70
2023-05-06T00:12:13.608Z,15.32
2023-05-06T00:14:45.430Z,15.04
2023-05-06T00:17:15.708Z,15.07
2023-05-06T00:19:45.669Z,15.49
2023-05-06T00:22:16.323Z,15.38
2023-05-06T00:24:46.878Z,15.33
2023-05-06T00:27:17.824Z,15.53
2023-05-06T00:29:49.000Z,15.62
2023-05-06T00:32:19.086Z,15.56
2023-05-06T00:34:49.106Z,15.10
2023-05-06T00:37:19.791Z,15.32
2023-05-06T00:39:49.708Z,14.96
2023-05-06T00:42:23.338Z,15.24
2023-05-06T00:44:54.750Z,15.08
2023-05-06T00:47:28.868Z,15.45
2023-05-06T00:49:59.205Z,15.20
2023-05-06T00:52:32.627Z,15.36
2023-05-06T00:55:03.074Z,15.29
2023-05-06T00:57:35.068Z,15.41
2023-05-06T01:00:07.404Z,15.25
2023-05-06T01:02:46.194Z,15.31
2023-05-06T01:05:18.677Z,15.33
2023-05-06T01:07:54.719Z,15.39
2023-05-06T01:10:31.794Z,15.42
2023-05-06T01:13:09.134Z,15.35
2023-05-06T01:15:43.799Z,15.44
2023-05-06T01:18:18.378Z,15.08
2023-05-06T01:20:51.789Z,15.30
2023-05-06T01:23:23.556Z,15.28
2023-05-06T01:25:53.794Z,14.87
2023-05-06T01:28:24.120Z,15.11
2023-05-06T01:30:59.995Z,15.08
2023-05-06T01:33:37.474Z,15.31
2023-05-06T01:36:15.738Z,15.33
2023-05-06T01:38:53.031Z,15.29
2023-05-06T01:41:23.621Z,15.42
2023-05-06T01:43:56.205Z,15.16
2023-05-06T01:46:27.865Z,15.51
2023-05-06T01:48:59.755Z,15.53
2023-05-06T01:51:29.723Z,15.57
2023-05-06T01:54:01.359Z,15.49
2023-05-06T01:56:32.491Z,15.54
2023-05-06T01:59:02.839Z,15.17
2023-05-06T02:01:32.772Z,15.17
2023-05-06T02:04:03.682Z,15.38
2023-05-06T02:06:33.865Z,15.57
2023-05-06T02:09:06.968Z,15.41
2023-05-06T02:11:37.902Z,15.56
2023-05-06T02:14:09.795Z,15.65
2023-05-06T02:16:39.888Z,15.59
2023-05-06T02:19:10.828Z,15.72
2023-05-06T02:21:41.599Z,15.70
2023-05-06T02:24:13.411Z,15.73
2023-05-06T02:26:43.420Z,15.56
2023-05-06T02:29:14.071Z,15.60
2023-05-06T02:31:44.099Z,15.60
2023-05-06T02:34:14.952Z,15.64
2023-05-06T02:36:45.559Z,15.82
2023-05-06T02:39:17.799Z,15.93
2023-05-06T02:41:48.698Z,15.96
2023-05-06T02:44:18.965Z,15.58
2023-05-06T02:46:48.859Z,15.25
2023-05-06T02:49:19.366Z,15.40
2023-05-06T02:51:48.603Z,15.47
2023-05-06T02:54:19.972Z,15.70
2023-05-06T02:56:50.153Z,15.73
2023-05-06T02:59:20.237Z,15.78
2023-05-06T03:01:50.890Z,15.72
2023-05-06T03:04:21.546Z,15.36
2023-05-06T03:06:51.610Z,15.18
2023-05-06T03:09:23.050Z,15.20
2023-05-06T03:11:52.894Z,15.69
2023-05-06T03:14:23.381Z,15.64
2023-05-06T03:16:53.255Z,15.64
2023-05-06T03:19:23.614Z,15.69
2023-05-06T03:21:53.631Z,15.42
2023-05-06T03:24:25.715Z,15.60
2023-05-06T03:26:55.582Z,15.61
2023-05-06T03:29:25.536Z,15.49
2023-05-06T03:31:58.966Z,15.29
2023-05-06T03:34:29.385Z,15.37
2023-05-06T03:36:59.359Z,15.24
2023-05-06T03:39:31.584Z,15.15
2023-05-06T03:42:02.550Z,15.15
2023-05-06T03:44:32.352Z,15.06
2023-05-06T03:47:02.576Z,15.24
2023-05-06T03:49:32.633Z,15.33
2023-05-06T03:52:03.216Z,15.38
2023-05-06T03:54:34.962Z,15.34
2023-05-06T03:57:05.906Z,15.44
2023-05-06T03:59:36.247Z,15.30
2023-05-06T04:02:05.961Z,15.40
2023-05-06T04:04:36.332Z,15.33
2023-05-06T04:07:06.607Z,15.28
2023-05-06T04:09:37.704Z,15.10
2023-05-06T04:12:08.492Z,15.06
2023-05-06T04:14:38.398Z,15.08
2023-05-06T04:17:09.909Z,15.21
2023-05-06T04:19:39.934Z,15.12
2023-05-06T04:22:09.607Z,15.22
2023-05-06T04:24:46.024Z,15.26
2023-05-06T04:27:17.112Z,15.27
2023-05-06T04:29:47.762Z,15.10
2023-05-06T04:32:18.412Z,14.99
2023-05-06T04:34:48.497Z,14.97
2023-05-06T04:37:19.034Z,14.92
2023-05-06T04:39:50.075Z,15.02
2023-05-06T04:42:19.896Z,15.07
2023-05-06T04:44:49.974Z,15.09
2023-05-06T04:47:20.660Z,15.40
2023-05-06T04:49:51.125Z,15.34
2023-05-06T04:52:21.531Z,15.29
2023-05-06T04:54:53.159Z,15.06
2023-05-06T04:57:23.574Z,14.84
2023-05-06T04:59:53.529Z,15.27
2023-05-06T05:02:23.863Z,15.33
2023-05-06T05:04:53.934Z,15.56
2023-05-06T05:07:25.069Z,15.59
2023-05-06T05:09:58.504Z,15.50
2023-05-06T05:12:28.002Z,15.70
2023-05-06T05:14:57.950Z,15.68
2023-05-06T05:17:28.631Z,15.50
2023-05-06T05:19:58.549Z,15.64
2023-05-06T05:22:28.379Z,15.45
2023-05-06T05:24:59.641Z,15.42
2023-05-06T05:27:29.527Z,15.70
2023-05-06T05:29:59.854Z,16.07
2023-05-06T05:32:30.247Z,15.87
2023-05-06T05:34:59.910Z,15.80
2023-05-06T05:37:30.238Z,15.97
2023-05-06T05:40:02.402Z,15.58
2023-05-06T05:42:34.175Z,15.41
2023-05-06T05:45:04.333Z,15.50
2023-05-06T05:47:34.191Z,15.66
2023-05-06T05:50:04.738Z,15.94
2023-05-06T05:52:34.248Z,15.73
2023-05-06T05:55:05.979Z,15.81
2023-05-06T05:57:35.589Z,15.65
2023-05-06T06:00:07.190Z,15.79
2023-05-06T06:02:37.879Z,15.81
2023-05-06T06:05:10.515Z,15.95
2023-05-06T06:07:40.761Z,15.82
2023-05-06T06:10:14.660Z,15.78
2023-05-06T06:12:45.196Z,16.10
2023-05-06T06:15:15.231Z,15.77
2023-05-06T06:17:45.384Z,16.21
2023-05-06T06:20:16.360Z,16.28
2023-05-06T06:22:47.462Z,16.32
2023-05-06T06:25:19.817Z,16.22
2023-05-06T06:27:50.106Z,16.20
2023-05-06T06:30:20.303Z,16.33
2023-05-06T06:32:51.557Z,16.29
2023-05-06T06:35:22.514Z,16.39
2023-05-06T06:37:52.543Z,16.55
2023-05-06T06:40:24.494Z,16.61
2023-05-06T06:42:54.943Z,16.46
2023-05-06T06:45:25.767Z,16.61
2023-05-06T06:47:55.850Z,16.51
2023-05-06T06:50:27.529Z,16.53
2023-05-06T06:52:57.700Z,16.53
2023-05-06T06:55:29.956Z,16.51
2023-05-06T06:58:00.656Z,16.58
2023-05-06T07:00:30.366Z,16.71
2023-05-06T07:03:00.869Z,16.69
2023-05-06T07:05:30.560Z,16.70
2023-05-06T07:08:00.986Z,16.56
2023-05-06T07:10:33.430Z,16.56
2023-05-06T07:13:04.109Z,16.61
2023-05-06T07:15:34.426Z,16.81
2023-05-06T07:18:04.717Z,16.96
2023-05-06T07:20:35.229Z,16.96
2023-05-06T07:23:06.007Z,16.95
2023-05-06T07:25:38.081Z,17.02
2023-05-06T07:28:08.575Z,17.10
2023-05-06T07:30:40.938Z,17.13
2023-05-06T07:33:10.691Z,17.14
2023-05-06T07:35:40.950Z,17.05
2023-05-06T07:38:11.847Z,17.14
2023-05-06T07:40:44.060Z,17.09
2023-05-06T07:43:13.926Z,17.29
2023-05-06T07:45:44.596Z,17.25
2023-05-06T07:48:14.866Z,17.33
2023-05-06T07:50:44.899Z,17.33
2023-05-06T07:53:15.296Z,17.22
2023-05-06T07:55:46.956Z,17.34
2023-05-06T07:58:20.296Z,17.32
2023-05-06T08:00:50.139Z,17.47
2023-05-06T08:03:20.649Z,17.45
2023-05-06T08:05:52.702Z,17.60
2023-05-06T08:08:23.077Z,17.87
2023-05-06T08:10:54.666Z,17.66
2023-05-06T08:13:25.253Z,17.58
2023-05-06T08:15:56.033Z,17.71
2023-05-06T08:18:26.536Z,17.67
2023-05-06T08:20:57.393Z,17.68
2023-05-06T08:23:28.162Z,18.02
2023-05-06T08:25:59.476Z,17.92
2023-05-06T08:28:30.269Z,17.90
2023-05-06T08:31:02.253Z,17.92
2023-05-06T08:33:32.854Z,18.15
2023-05-06T08:36:02.995Z,18.27
2023-05-06T08:38:33.058Z,18.18
2023-05-06T08:41:11.265Z,18.36
2023-05-06T08:43:44.185Z,18.48
2023-05-06T08:46:14.381Z,18.60
2023-05-06T08:48:45.543Z,18.78
2023-05-06T08:51:17.124Z,18.76
2023-05-06T08:53:51.986Z,18.69
2023-05-06T08:56:25.567Z,18.82
2023-05-06T08:58:56.514Z,18.61
2023-05-06T09:01:29.236Z,18.63
2023-05-06T09:04:00.437Z,18.99
2023-05-06T09:06:30.438Z,18.91
2023-05-06T09:09:00.569Z,18.83
2023-05-06T09:11:32.649Z,19.01
2023-05-06T09:14:13.698Z,19.19
2023-05-06T09:16:46.238Z,19.29
2023-05-06T09:19:17.876Z,19.33
2023-05-06T09:21:51.494Z,19.40
2023-05-06T09:24:22.207Z,19.61
2023-05-06T09:27:07.177Z,19.78
2023-05-06T09:29:39.762Z,19.93
2023-05-06T09:32:12.022Z,20.14
2023-05-06T09:34:46.837Z,19.91
2023-05-06T09:37:17.087Z,20.28
2023-05-06T09:39:46.846Z,20.50
2023-05-06T09:42:19.019Z,20.37
2023-05-06T09:44:49.475Z,20.53
2023-05-06T09:47:20.633Z,20.65
2023-05-06T09:49:51.902Z,20.61
2023-05-06T09:52:22.437Z,20.54
2023-05-06T09:54:52.853Z,20.65
2023-05-06T09:57:25.715Z,21.06
2023-05-06T09:59:56.889Z,20.74
2023-05-06T10:02:28.771Z,20.65
2023-05-06T10:05:02.000Z,20.64
2023-05-06T10:07:32.221Z,20.75
2023-05-06T10:10:03.341Z,20.98
2023-05-06T10:12:34.645Z,20.89
2023-05-06T10:15:07.061Z,21.16
2023-05-06T10:17:41.040Z,21.20
2023-05-06T10:20:12.510Z,21.01
2023-05-06T10:22:51.608Z,20.98
2023-05-06T10:25:30.274Z,21.01
2023-05-06T10:28:06.248Z,21.08
2023-05-06T10:30:39.442Z,21.40
2023-05-06T10:33:10.767Z,21.46
2023-05-06T10:35:49.487Z,21.37
2023-05-06T10:38:26.130Z,21.05
2023-05-06T10:40:56.693Z,21.49
2023-05-06T10:43:29.937Z,21.50
2023-05-06T10:46:09.525Z,21.73
2023-05-06T10:48:41.645Z,21.54
2023-05-06T10:51:28.680Z,21.70
2023-05-06T10:54:02.910Z,21.64
2023-05-06T10:56:35.344Z,21.87
2023-05-06T10:59:12.066Z,21.92
2023-05-06T11:01:43.764Z,22.00
2023-05-06T11:04:15.673Z,21.89
2023-05-06T11:06:47.132Z,21.89
2023-05-06T11:09:21.206Z,22.12
2023-05-06T11:12:03.174Z,21.91
2023-05-06T11:14:37.161Z,21.98
2023-05-06T11:17:08.976Z,22.14
2023-05-06T11:19:40.516Z,21.91
2023-05-06T11:22:10.781Z,21.96
2023-05-06T11:24:42.348Z,21.82
2023-05-06T11:27:12.920Z,22.14
2023-05-06T11:29:45.477Z,22.04
2023-05-06T11:32:24.999Z,22.12
2023-05-06T11:34:58.248Z,22.28
2023-05-06T11:37:30.398Z,22.39
2023-05-06T11:40:00.257Z,22.54
2023-05-06T11:42:30.963Z,22.63
2023-05-06T11:45:04.164Z,22.63
2023-05-06T11:47:34.962Z,22.56
2023-05-06T11:50:08.014Z,22.46
2023-05-06T11:52:38.177Z,22.55
2023-05-06T11:55:12.014Z,22.64
2023-05-06T11:57:47.898Z,22.72
2023-05-06T12:00:20.620Z,22.31
2023-05-06T12:02:51.074Z,22.25
2023-05-06T12:05:25.335Z,22.35
2023-05-06T12:07:55.583Z,22.37
2023-05-06T12:10:25.803Z,22.32
2023-05-06T12:12:56.208Z,22.25
2023-05-06T12:15:28.692Z,22.23
2023-05-06T12:17:59.618Z,22.26
2023-05-06T12:20:30.186Z,22.09
2023-05-06T12:23:08.847Z,22.36
2023-05-06T12:25:39.040Z,22.38
2023-05-06T12:28:17.394Z,21.95
2023-05-06T12:30:49.942Z,22.17
2023-05-06T12:33:20.217Z,22.17
2023-05-06T12:35:52.004Z,22.16
2023-05-06T12:38:22.998Z,22.07
2023-05-06T12:40:57.427Z,22.01
2023-05-06T12:43:32.830Z,22.12
2023-05-06T12:46:09.560Z,22.09
2023-05-06T12:48:39.939Z,22.46
2023-05-06T12:51:23.086Z,22.30
2023-05-06T12:53:53.534Z,22.41
2023-05-06T12:56:25.087Z,22.96
2023-05-06T12:59:02.827Z,23.47
2023-05-06T13:01:34.905Z,23.89
2023-05-06T13:04:05.342Z,23.98
2023-05-06T13:06:35.984Z,24.16
2023-05-06T13:09:06.703Z,24.72
2023-05-06T13:11:37.002Z,24.32
2023-05-06T13:14:08.039Z,24.52
2023-05-06T13:16:42.726Z,24.50
2023-05-06T13:19:30.769Z,24.72
2023-05-06T13:22:03.303Z,24.88
2023-05-06T13:24:34.516Z,25.12
2023-05-06T13:27:04.456Z,25.52
2023-05-06T13:29:34.554Z,25.78
2023-05-06T13:32:08.653Z,25.36
2023-05-06T13:34:39.210Z,25.62
2023-05-06T13:37:09.069Z,25.54
2023-05-06T13:39:40.093Z,25.67
2023-05-06T13:42:09.978Z,25.51
2023-05-06T13:44:40.096Z,26.01
2023-05-06T13:47:11.957Z,26.06
2023-05-06T13:49:42.348Z,25.90
2023-05-06T13:52:13.082Z,25.68
2023-05-06T13:54:43.340Z,25.49
2023-05-06T13:57:13.494Z,25.53
2023-05-06T13:59:44.198Z,25.56
2023-05-06T14:02:17.148Z,25.41
2023-05-06T14:04:47.702Z,25.31
2023-05-06T14:07:18.434Z,25.13
2023-05-06T14:09:48.253Z,25.16
2023-05-06T14:12:19.878Z,25.25
2023-05-06T14:14:50.612Z,25.43
2023-05-06T14:17:23.138Z,25.26
2023-05-06T14:19:53.198Z,25.26
2023-05-06T14:22:25.384Z,25.18
2023-05-06T14:24:55.251Z,25.21
2023-05-06T14:27:25.234Z,25.39
2023-05-06T14:29:55.467Z,25.03
2023-05-06T14:32:26.930Z,25.21
2023-05-06T14:34:57.227Z,25.36
2023-05-06T14:37:28.165Z,25.10
2023-05-06T14:39:59.892Z,25.10
2023-05-06T14:42:30.904Z,24.99
2023-05-06T14:45:01.900Z,24.75
2023-05-06T14:47:34.844Z,24.87
2023-05-06T14:50:04.806Z,24.97
2023-05-06T14:52:36.200Z,24.74
2023-05-06T14:55:08.752Z,24.90
2023-05-06T14:57:39.444Z,24.42
2023-05-06T15:00:13.576Z,24.01
2023-05-06T15:02:47.133Z,23.96
2023-05-06T15:05:18.041Z,23.99
2023-05-06T15:07:48.636Z,24.07
2023-05-06T15:10:19.193Z,24.37
2023-05-06T15:12:49.810Z,24.10
2023-05-06T15:15:20.391Z,24.12
2023-05-06T15:17:53.054Z,24.08
2023-05-06T15:20:24.347Z,23.76
2023-05-06T15:22:54.588Z,23.44
2023-05-06T15:25:34.962Z,23.59
2023-05-06T15:28:07.356Z,23.26
2023-05-06T15:30:39.443Z,23.38
2023-05-06T15:33:12.248Z,23.09
2023-05-06T15:35:43.130Z,23.15
2023-05-06T15:38:14.520Z,23.39
2023-05-06T15:40:52.928Z,23.60
2023-05-06T15:43:24.595Z,23.17
2023-05-06T15:45:55.582Z,23.34
2023-05-06T15:48:26.573Z,23.35
2023-05-06T15:50:57.711Z,23.59
2023-05-06T15:53:29.198Z,23.67
2023-05-06T15:56:07.517Z,23.74
2023-05-06T15:58:46.885Z,23.52
2023-05-06T16:01:20.812Z,23.13
2023-05-06T16:03:57.058Z,23.37
2023-05-06T16:06:28.061Z,23.18
2023-05-06T16:09:00.149Z,23.64
2023-05-06T16:11:31.037Z,23.41
2023-05-06T16:14:01.345Z,23.13
2023-05-06T16:16:32.732Z,22.92
2023-05-06T16:19:04.924Z,23.05
2023-05-06T16:21:35.257Z,23.03
2023-05-06T16:24:06.592Z,22.96
2023-05-06T16:26:36.770Z,22.70
2023-05-06T16:29:07.176Z,22.53
2023-05-06T16:31:38.342Z,22.84
2023-05-06T16:34:09.866Z,22.64
2023-05-06T16:36:40.546Z,22.23
2023-05-06T16:39:10.578Z,22.25
2023-05-06T16:41:40.581Z,22.46
2023-05-06T16:44:10.902Z,22.47
2023-05-06T16:46:41.367Z,22.42
2023-05-06T16:49:12.658Z,22.39
2023-05-06T16:51:43.283Z,22.10
2023-05-06T16:54:13.506Z,22.21
2023-05-06T16:56:52.200Z,21.60
2023-05-06T16:59:23.929Z,21.98
2023-05-06T17:01:54.886Z,21.40
2023-05-06T17:04:27.248Z,21.56
2023-05-06T17:06:58.185Z,21.28
2023-05-06T17:09:28.876Z,21.36
2023-05-06T17:11:59.325Z,20.80
2023-05-06T17:14:29.741Z,20.99
2023-05-06T17:17:03.261Z,20.87
2023-05-06T17:19:37.144Z,20.81
2023-05-06T17:22:08.587Z,20.21
2023-05-06T17:24:38.795Z,20.28
2023-05-06T17:27:09.660Z,19.93
2023-05-06T17:29:40.160Z,20.15
2023-05-06T17:32:11.495Z,20.20
2023-05-06T17:34:42.951Z,19.88
2023-05-06T17:37:12.853Z,19.73
2023-05-06T17:39:43.164Z,19.76
2023-05-06T17:42:14.236Z,20.04
2023-05-06T17:44:45.494Z,19.74
2023-05-06T17:47:18.165Z,19.34
2023-05-06T17:49:51.404Z,19.28
2023-05-06T17:52:21.729Z,19.31
2023-05-06T17:55:10.642Z,19.34
2023-05-06T17:57:41.556Z,19.02
2023-05-06T18:00:14.371Z,19.05
2023-05-06T18:02:45.507Z,19.08
2023-05-06T18:05:18.879Z,18.80
2023-05-06T18:07:49.844Z,18.69
2023-05-06T18:10:21.215Z,18.67
2023-05-06T18:12:51.572Z,18.57
2023-05-06T18:15:22.587Z,18.38
2023-05-06T18:17:52.338Z,18.39
2023-05-06T18:20:24.203Z,18.37
2023-05-06T18:22:54.804Z,18.74
2023-05-06T18:25:25.597Z,18.50
2023-05-06T18:27:56.280Z,18.62
2023-05-06T18:30:26.536Z,18.58
2023-05-06T18:32:57.172Z,18.61
2023-05-06T18:35:28.804Z,18.54
2023-05-06T18:37:59.506Z,18.38
2023-05-06T18:40:29.801Z,18.37
2023-05-06T18:43:00.288Z,18.33
2023-05-06T18:45:30.720Z,18.41
2023-05-06T18:48:01.512Z,18.42
2023-05-06T18:50:32.800Z,18.23
2023-05-06T18:53:03.536Z,18.25
2023-05-06T18:55:34.252Z,18.24
2023-05-06T18:58:06.075Z,18.38
2023-05-06T19:00:37.392Z,18.28
2023-05-06T19:03:07.528Z,18.32
2023-05-06T19:05:39.179Z,18.01
2023-05-06T19:08:10.635Z,17.98
2023-05-06T19:10:41.146Z,18.08
2023-05-06T19:13:16.045Z,18.10
2023-05-06T19:15:46.720Z,18.08
2023-05-06T19:18:17.407Z,17.98
2023-05-06T19:20:49.654Z,17.92
2023-05-06T19:23:20.284Z,17.88
2023-05-06T19:25:50.166Z,17.96
2023-05-06T19:28:20.966Z,17.96
2023-05-06T19:30:51.036Z,18.03
2023-05-06T19:33:21.123Z,18.07
2023-05-06T19:35:52.595Z,17.99
2023-05-06T19:38:23.304Z,17.91
2023-05-06T19:40:52.694Z,17.80
2023-05-06T19:43:24.900Z,18.05
2023-05-06T19:45:55.454Z,17.92
2023-05-06T19:48:26.816Z,18.01
2023-05-06T19:51:00.594Z,17.97
2023-05-06T19:53:31.321Z,17.98
2023-05-06T19:56:09.642Z,17.96
2023-05-06T19:58:40.085Z,17.85
2023-05-06T20:01:11.471Z,17.86
2023-05-06T20:03:42.636Z,17.90
2023-05-06T20:06:14.689Z,17.93
2023-05-06T20:08:47.111Z,17.82
2023-05-06T20:11:17.217Z,17.75
2023-05-06T20:13:48.033Z,17.72
2023-05-06T20:16:18.394Z,17.76
2023-05-06T20:18:48.137Z,17.66
2023-05-06T20:21:19.280Z,17.67
2023-05-06T20:23:50.389Z,17.58
2023-05-06T20:26:20.434Z,17.56
2023-05-06T20:28:52.791Z,17.55
2023-05-06T20:31:23.100Z,17.49
2023-05-06T20:33:53.028Z,17.40
2023-05-06T20:36:25.116Z,17.36
2023-05-06T20:38:55.438Z,17.35
2023-05-06T20:41:25.842Z,17.34
2023-05-06T20:43:57.480Z,17.32
2023-05-06T20:46:27.527Z,17.26
2023-05-06T20:48:57.352Z,17.37
2023-05-06T20:51:29.682Z,17.32
2023-05-06T20:54:00.963Z,17.16
2023-05-06T20:56:31.765Z,16.90
2023-05-06T20:59:02.294Z,16.80
2023-05-06T21:01:32.026Z,16.80
2023-05-06T21:04:03.939Z,16.95
2023-05-06T21:06:35.053Z,16.85
2023-05-06T21:09:06.913Z,16.85
2023-05-06T21:11:37.590Z,17.05
2023-05-06T21:14:07.920Z,16.97
2023-05-06T21:16:37.651Z,16.85
2023-05-06T21:19:07.261Z,16.88
2023-05-06T21:21:38.758Z,16.92
2023-05-06T21:24:09.279Z,16.97
2023-05-06T21:26:40.712Z,16.94
2023-05-06T21:29:10.711Z,17.07
2023-05-06T21:31:41.062Z,16.93
2023-05-06T21:34:11.774Z,16.84
2023-05-06T21:36:44.354Z,16.78
2023-05-06T21:39:16.302Z,16.83
2023-05-06T21:41:46.140Z,16.95
2023-05-06T21:44:16.545Z,16.85
2023-05-06T21:46:46.945Z,16.62
2023-05-06T21:49:17.190Z,16.73
2023-05-06T21:51:48.839Z,16.85
2023-05-06T21:54:19.049Z,16.86
2023-05-06T21:56:49.374Z,16.84
2023-05-06T21:59:20.323Z,16.83
2023-05-06T22:01:50.012Z,16.97
2023-05-06T22:04:21.200Z,17.02
2023-05-06T22:06:52.372Z,17.04
2023-05-06T22:09:23.717Z,16.83
2023-05-06T22:11:53.933Z,16.89
2023-05-06T22:14:26.944Z,16.76
2023-05-06T22:17:01.856Z,16.68
2023-05-06T22:19:33.258Z,16.78
2023-05-06T22:22:05.686Z,16.69
2023-05-06T22:24:35.949Z,16.65
2023-05-06T22:27:05.991Z,16.47
2023-05-06T22:29:36.266Z,16.57
2023-05-06T22:32:07.409Z,16.80
2023-05-06T22:34:37.463Z,16.79
2023-05-06T22:37:12.662Z,16.84
2023-05-06T22:39:42.906Z,16.86
2023-05-06T22:42:12.639Z,16.84
2023-05-06T22:44:42.948Z,16.90
2023-05-06T22:47:13.349Z,16.84
2023-05-06T22:49:43.960Z,16.85
2023-05-06T22:52:15.678Z,16.91
2023-05-06T22:54:45.668Z,16.79
2023-05-06T22:57:15.779Z,16.80
2023-05-06T22:59:46.205Z,16.44
2023-05-06T23:02:16.770Z,16.39
2023-05-06T23:04:46.801Z,16.61
2023-05-06T23:07:18.341Z,16.83
2023-05-06T23:09:48.811Z,16.84
2023-05-06T23:12:19.795Z,16.65
2023-05-06T23:14:50.297Z,16.84
2023-05-06T23:17:20.508Z,16.91
2023-05-06T23:19:50.667Z,16.94
2023-05-06T23:22:22.592Z,16.80
2023-05-06T23:24:53.521Z,16.79
2023-05-06T23:27:25.885Z,16.75
2023-05-06T23:29:56.642Z,16.81
2023-05-06T23:32:27.659Z,16.75
2023-05-06T23:34:57.928Z,16.88
2023-05-06T23:37:29.305Z,16.90
2023-05-06T23:39:59.962Z,16.80
2023-05-06T23:42:30.308Z,16.87
2023-05-06T23:45:00.994Z,16.94
2023-05-06T23:47:31.099Z,16.95
2023-05-06T23:50:01.703Z,16.84
2023-05-06T23:52:33.612Z,16.90
2023-05-06T23:55:04.903Z,16.91
2023-05-06T23:57:35.492Z,16.79
